This is the latest recevied weather packets stored in our database for station/object KR4CWL-13. If no packets are shown the sender has not sent any weather packets the latest 10 day(s).
| Time | Temp. | Humidity | Pressure | Rain* | Wind** | Luminosity | Snow |
|---|---|---|---|---|---|---|---|
| 1777790040 | 6.11° C | 91% | 1008.5 hPa | 0 mm | - | - | - |
| 1777789440 | 6.11° C | 91% | 1008.5 hPa | 0 mm | - | - | - |
| 1777788840 | 6.67° C | 91% | 1008.5 hPa | 0 mm | - | - | - |
| 1777788240 | 6.67° C | 92% | 1008.1 hPa | 0 mm | - | - | - |
| 1777787640 | 6.67° C | 92% | 1008.1 hPa | 0 mm | - | - | - |
| 1777787040 | 6.67° C | 91% | 1008.1 hPa | 0 mm | - | - | - |
| 1777786440 | 6.11° C | 94% | 1008.1 hPa | 0 mm | - | - | - |
| 1777785840 | 6.11° C | 97% | 1008.1 hPa | 0 mm | - | - | - |
| 1777785240 | 6.11° C | 96% | 1008.1 hPa | 0 mm | - | - | - |
| 1777784640 | 6.67° C | 95% | 1008.1 hPa | 0 mm | - | - | - |
| 1777784040 | 6.67° C | 95% | 1008.1 hPa | 0 mm | - | - | - |
| 1777783440 | 7.22° C | 93% | 1008.1 hPa | 0 mm | - | - | - |
| 1777782840 | 7.22° C | 93% | 1008.1 hPa | 0 mm | - | - | - |
| 1777782240 | 7.22° C | 93% | 1008.1 hPa | 0 mm | - | - | - |
| 1777781640 | 7.78° C | 93% | 1008.1 hPa | 0 mm | - | - | - |
| 1777781040 | 7.78° C | 92% | 1007.8 hPa | 0 mm | - | - | - |
| 1777780440 | 7.78° C | 92% | 1007.8 hPa | 0 mm | - | - | - |
| 1777779840 | 7.78° C | 91% | 1007.8 hPa | 0 mm | - | - | - |
| 1777779240 | 7.78° C | 92% | 1007.8 hPa | 0 mm | - | - | - |
| 1777778640 | 7.78° C | 93% | 1007.4 hPa | 0 mm | - | - | - |
| 1777778040 | 7.22° C | 96% | 1007.4 hPa | 0 mm | - | - | - |
| 1777777440 | 7.22° C | 98% | 1007.4 hPa | 0 mm | - | - | - |
| 1777776840 | 6.67° C | 99% | 1007.4 hPa | 0 mm | - | - | - |
| 1777776239 | 6.67° C | 99% | 1007.1 hPa | 0 mm | - | - | - |
| 1777775639 | 7.22° C | 98% | 1007.1 hPa | 0 mm | - | - | - |
* Rain since midnight (hover to see other rain measurements)
** Current wind speed in m/s (hover to see current wind gust speed)